createdAt,value
2023-02-09T00:01:12.359Z,-6.02
2023-02-09T00:02:44.063Z,-6.00
2023-02-09T00:04:15.671Z,-5.94
2023-02-09T00:05:47.273Z,-5.92
2023-02-09T00:07:18.916Z,-5.94
2023-02-09T00:08:50.602Z,-5.95
2023-02-09T00:10:22.124Z,-5.99
2023-02-09T00:12:12.287Z,-5.97
2023-02-09T00:13:44.031Z,-5.94
2023-02-09T00:15:15.544Z,-5.94
2023-02-09T00:16:47.269Z,-5.94
2023-02-09T00:18:19.167Z,-5.87
2023-02-09T00:19:50.652Z,-5.86
2023-02-09T00:21:22.095Z,-5.80
2023-02-09T00:22:53.593Z,-5.73
2023-02-09T00:24:25.316Z,-5.73
2023-02-09T00:25:59.931Z,-5.76
2023-02-09T00:27:32.362Z,-5.77
2023-02-09T00:29:03.885Z,-5.74
2023-02-09T00:30:35.432Z,-5.73
2023-02-09T00:32:06.974Z,-5.76
2023-02-09T00:33:38.582Z,-5.81
2023-02-09T00:35:10.131Z,-5.86
2023-02-09T00:36:41.675Z,-5.94
2023-02-09T00:38:13.555Z,-5.99
2023-02-09T00:39:45.087Z,-6.06
2023-02-09T00:41:16.623Z,-6.07
2023-02-09T00:42:48.111Z,-6.07
2023-02-09T00:44:19.657Z,-6.04
2023-02-09T00:45:51.160Z,-5.98
2023-02-09T00:47:22.775Z,-5.98
2023-02-09T00:48:54.255Z,-5.96
2023-02-09T00:50:26.096Z,-5.97
2023-02-09T00:51:57.589Z,-6.05
2023-02-09T00:53:29.131Z,-6.13
2023-02-09T00:55:01.170Z,-6.19
2023-02-09T00:56:33.893Z,-6.17
2023-02-09T00:58:05.425Z,-6.14
2023-02-09T00:59:37.070Z,-6.12
2023-02-09T01:01:13.687Z,-6.07
2023-02-09T01:02:45.219Z,-6.05
2023-02-09T01:04:16.800Z,-6.09
2023-02-09T01:05:48.393Z,-6.15
2023-02-09T01:07:20.291Z,-6.19
2023-02-09T01:08:51.776Z,-6.25
2023-02-09T01:10:23.230Z,-6.30
2023-02-09T01:11:54.830Z,-6.32
2023-02-09T01:13:26.370Z,-6.35
2023-02-09T01:14:57.924Z,-6.35
2023-02-09T01:16:31.606Z,-6.32
2023-02-09T01:18:03.316Z,-6.37
2023-02-09T01:19:35.287Z,-6.41
2023-02-09T01:21:10.547Z,-6.41
2023-02-09T01:22:42.107Z,-6.42
2023-02-09T01:24:13.892Z,-6.45
2023-02-09T01:25:45.470Z,-6.49
2023-02-09T01:27:17.199Z,-6.51
2023-02-09T01:28:49.507Z,-6.53
2023-02-09T01:30:21.166Z,-6.55
2023-02-09T01:31:52.858Z,-6.61
2023-02-09T01:33:24.542Z,-6.68
2023-02-09T01:34:56.066Z,-6.76
2023-02-09T01:36:27.990Z,-6.81
2023-02-09T01:37:59.538Z,-6.76
2023-02-09T01:39:31.061Z,-6.76
2023-02-09T01:41:02.534Z,-6.77
2023-02-09T01:42:34.104Z,-6.74
2023-02-09T01:44:28.709Z,-6.78
2023-02-09T01:46:00.350Z,-6.78
2023-02-09T01:47:31.944Z,-6.81
2023-02-09T01:49:03.717Z,-6.79
2023-02-09T01:50:37.001Z,-6.82
2023-02-09T01:52:13.219Z,-6.82
2023-02-09T01:53:44.886Z,-6.80
2023-02-09T01:55:17.744Z,-6.86
2023-02-09T01:56:50.988Z,-6.81
2023-02-09T01:58:22.511Z,-6.83
2023-02-09T01:59:55.966Z,-6.87
2023-02-09T02:01:27.462Z,-6.93
2023-02-09T02:03:00.463Z,-6.95
2023-02-09T02:04:32.587Z,-6.95
2023-02-09T02:06:09.170Z,-6.94
2023-02-09T02:07:45.547Z,-7.00
2023-02-09T02:09:17.091Z,-7.05
2023-02-09T02:10:48.639Z,-7.10
2023-02-09T02:12:20.123Z,-7.15
2023-02-09T02:13:51.633Z,-7.20
2023-02-09T02:15:27.695Z,-7.19
2023-02-09T02:17:11.408Z,-7.15
2023-02-09T02:19:01.714Z,-7.14
2023-02-09T02:20:51.956Z,-7.17
2023-02-09T02:22:23.473Z,-7.12
2023-02-09T02:24:13.178Z,-7.05
2023-02-09T02:26:02.530Z,-7.00
2023-02-09T02:27:37.089Z,-7.00
2023-02-09T02:29:14.394Z,-7.02
2023-02-09T02:30:49.386Z,-7.03
2023-02-09T02:32:21.168Z,-7.06
2023-02-09T02:33:52.931Z,-7.19
2023-02-09T02:35:24.478Z,-7.39
2023-02-09T02:37:15.038Z,-7.48
2023-02-09T02:38:50.441Z,-7.47
2023-02-09T02:40:40.625Z,-7.43
2023-02-09T02:42:40.125Z,-7.41
2023-02-09T02:44:13.079Z,-7.43
2023-02-09T02:45:47.310Z,-7.37
2023-02-09T02:47:19.550Z,-7.35
2023-02-09T02:48:55.464Z,-7.36
2023-02-09T02:50:27.430Z,-7.37
2023-02-09T02:51:59.728Z,-7.40
2023-02-09T02:53:32.298Z,-7.40
2023-02-09T02:55:05.513Z,-7.45
2023-02-09T02:56:37.976Z,-7.47
2023-02-09T02:58:09.541Z,-7.47
2023-02-09T02:59:42.706Z,-7.47
2023-02-09T03:01:14.973Z,-7.50
2023-02-09T03:02:47.782Z,-7.49
2023-02-09T03:04:19.333Z,-7.45
2023-02-09T03:05:50.871Z,-7.41
2023-02-09T03:07:22.431Z,-7.43
2023-02-09T03:08:55.253Z,-7.42
2023-02-09T03:10:30.790Z,-7.37
2023-02-09T03:12:07.198Z,-7.34
2023-02-09T03:13:41.082Z,-7.38
2023-02-09T03:15:21.423Z,-7.41
2023-02-09T03:16:53.023Z,-7.41
2023-02-09T03:18:30.832Z,-7.39
2023-02-09T03:20:11.029Z,-7.36
2023-02-09T03:21:45.239Z,-7.36
2023-02-09T03:23:20.272Z,-7.34
2023-02-09T03:24:53.053Z,-7.29
2023-02-09T03:26:28.400Z,-7.33
2023-02-09T03:28:02.586Z,-7.38
2023-02-09T03:29:34.122Z,-7.40
2023-02-09T03:31:05.583Z,-7.42
2023-02-09T03:32:37.650Z,-7.48
2023-02-09T03:34:09.647Z,-7.48
2023-02-09T03:35:41.138Z,-7.44
2023-02-09T03:37:12.681Z,-7.44
2023-02-09T03:38:44.229Z,-7.49
2023-02-09T03:40:15.920Z,-7.54
2023-02-09T03:41:47.946Z,-7.54
2023-02-09T03:43:19.784Z,-7.54
2023-02-09T03:44:51.382Z,-7.58
2023-02-09T03:46:23.032Z,-7.65
2023-02-09T03:47:54.561Z,-7.68
2023-02-09T03:49:26.779Z,-7.72
2023-02-09T03:50:58.218Z,-7.75
2023-02-09T03:52:31.719Z,-7.75
2023-02-09T03:54:03.932Z,-7.69
2023-02-09T03:55:37.181Z,-7.69
2023-02-09T03:57:10.485Z,-7.71
2023-02-09T03:58:42.061Z,-7.75
2023-02-09T04:00:13.865Z,-7.76
2023-02-09T04:01:45.482Z,-7.74
2023-02-09T04:03:16.983Z,-7.74
2023-02-09T04:04:48.496Z,-7.76
2023-02-09T04:06:20.086Z,-7.74
2023-02-09T04:07:51.661Z,-7.75
2023-02-09T04:09:23.483Z,-7.74
2023-02-09T04:10:55.043Z,-7.71
2023-02-09T04:12:26.510Z,-7.67
2023-02-09T04:13:58.113Z,-7.61
2023-02-09T04:15:29.714Z,-7.58
2023-02-09T04:17:01.190Z,-7.54
2023-02-09T04:18:32.662Z,-7.48
2023-02-09T04:20:04.310Z,-7.47
2023-02-09T04:21:36.204Z,-7.46
2023-02-09T04:23:07.692Z,-7.45
2023-02-09T04:24:39.188Z,-7.45
2023-02-09T04:26:10.847Z,-7.44
2023-02-09T04:27:42.450Z,-7.46
2023-02-09T04:29:13.926Z,-7.46
2023-02-09T04:30:45.581Z,-7.45
2023-02-09T04:32:17.424Z,-7.40
2023-02-09T04:33:48.947Z,-7.41
2023-02-09T04:35:20.480Z,-7.38
2023-02-09T04:36:52.408Z,-7.42
2023-02-09T04:38:23.896Z,-7.51
2023-02-09T04:39:55.363Z,-7.61
2023-02-09T04:41:26.879Z,-7.68
2023-02-09T04:42:58.506Z,-7.74
2023-02-09T04:44:30.099Z,-7.76
2023-02-09T04:46:01.863Z,-7.76
2023-02-09T04:47:33.384Z,-7.73
2023-02-09T04:49:04.966Z,-7.71
2023-02-09T04:50:36.405Z,-7.67
2023-02-09T04:52:08.013Z,-7.62
2023-02-09T04:53:39.530Z,-7.55
2023-02-09T04:55:11.017Z,-7.52
2023-02-09T04:56:42.502Z,-7.49
2023-02-09T04:58:36.504Z,-7.46
2023-02-09T05:00:08.472Z,-7.42
2023-02-09T05:01:39.957Z,-7.44
2023-02-09T05:03:11.509Z,-7.48
2023-02-09T05:04:43.027Z,-7.48
2023-02-09T05:06:14.499Z,-7.47
2023-02-09T05:07:45.967Z,-7.43
2023-02-09T05:09:17.449Z,-7.47
2023-02-09T05:10:48.958Z,-7.54
2023-02-09T05:12:20.422Z,-7.57
2023-02-09T05:13:51.868Z,-7.61
2023-02-09T05:15:23.315Z,-7.70
2023-02-09T05:16:54.963Z,-7.73
2023-02-09T05:18:26.533Z,-7.75
2023-02-09T05:19:58.045Z,-7.78
2023-02-09T05:21:29.582Z,-7.76
2023-02-09T05:23:01.066Z,-7.74
2023-02-09T05:24:32.646Z,-7.74
2023-02-09T05:26:04.279Z,-7.75
2023-02-09T05:27:35.874Z,-7.77
2023-02-09T05:29:07.367Z,-7.72
2023-02-09T05:30:38.885Z,-7.66
2023-02-09T05:32:10.408Z,-7.59
2023-02-09T05:33:42.016Z,-7.52
2023-02-09T05:35:13.589Z,-7.47
2023-02-09T05:36:45.171Z,-7.50
2023-02-09T05:38:16.654Z,-7.55
2023-02-09T05:39:48.221Z,-7.55
2023-02-09T05:41:38.135Z,-7.51
2023-02-09T05:43:09.841Z,-7.49
2023-02-09T05:44:45.100Z,-7.47
2023-02-09T05:46:16.644Z,-7.44
2023-02-09T05:47:48.194Z,-7.37
2023-02-09T05:49:19.799Z,-7.27
2023-02-09T05:50:51.376Z,-7.25
2023-02-09T05:52:23.132Z,-7.23
2023-02-09T05:53:54.743Z,-7.26
2023-02-09T05:55:26.436Z,-7.29
2023-02-09T05:56:57.918Z,-7.33
2023-02-09T05:58:29.492Z,-7.35
2023-02-09T06:00:01.016Z,-7.33
2023-02-09T06:01:33.100Z,-7.33
2023-02-09T06:03:07.252Z,-7.24
2023-02-09T06:04:38.949Z,-7.15
2023-02-09T06:06:10.527Z,-7.04
2023-02-09T06:09:53.862Z,-6.63
2023-02-09T06:13:11.073Z,-6.41
2023-02-09T06:14:42.718Z,-6.38
2023-02-09T06:16:14.327Z,-6.35
2023-02-09T06:17:46.524Z,-6.39
2023-02-09T06:19:18.971Z,-6.41
2023-02-09T06:20:50.620Z,-6.39
2023-02-09T06:22:22.125Z,-6.30
2023-02-09T06:23:53.667Z,-6.22
2023-02-09T06:25:25.235Z,-6.19
2023-02-09T06:26:56.989Z,-6.11
2023-02-09T06:28:28.553Z,-6.03
2023-02-09T06:30:00.249Z,-5.94
2023-02-09T06:31:31.983Z,-5.86
2023-02-09T06:33:03.573Z,-5.83
2023-02-09T06:34:35.102Z,-5.79
2023-02-09T06:36:06.937Z,-5.72
2023-02-09T06:37:38.465Z,-5.62
2023-02-09T06:39:10.219Z,-5.57
2023-02-09T06:40:41.832Z,-5.53
2023-02-09T06:42:13.475Z,-5.49
2023-02-09T06:43:45.179Z,-5.38
2023-02-09T06:45:17.102Z,-5.23
2023-02-09T06:46:48.679Z,-5.09
2023-02-09T06:48:20.309Z,-4.96
2023-02-09T06:49:52.014Z,-4.82
2023-02-09T06:51:23.589Z,-4.66
2023-02-09T06:52:55.600Z,-4.51
2023-02-09T06:54:29.416Z,-4.34
2023-02-09T06:56:01.736Z,-4.20
2023-02-09T06:57:35.258Z,-4.07
2023-02-09T06:59:18.633Z,-3.97
2023-02-09T07:00:53.319Z,-3.87
2023-02-09T07:02:28.242Z,-3.77
2023-02-09T07:06:23.380Z,-3.69
2023-02-09T07:07:58.192Z,-3.57
2023-02-09T07:09:29.741Z,-3.45
2023-02-09T07:14:38.457Z,-3.17
2023-02-09T07:16:10.300Z,-3.03
2023-02-09T07:17:42.470Z,-2.83
2023-02-09T07:19:18.720Z,-2.69
2023-02-09T07:21:00.181Z,-2.64
2023-02-09T07:22:31.761Z,-2.67
2023-02-09T07:24:03.530Z,-2.61
2023-02-09T07:25:35.891Z,-2.52
2023-02-09T07:27:16.318Z,-2.49
2023-02-09T07:28:48.049Z,-2.52
2023-02-09T07:30:40.184Z,-2.58
2023-02-09T07:32:22.867Z,-2.74
2023-02-09T07:33:54.411Z,-2.70
2023-02-09T07:35:25.975Z,-2.61
2023-02-09T07:36:57.578Z,-2.51
2023-02-09T07:38:29.274Z,-2.45
2023-02-09T07:40:00.886Z,-2.40
2023-02-09T07:41:32.468Z,-2.33
2023-02-09T07:43:04.580Z,-2.18
2023-02-09T07:44:36.134Z,-1.96
2023-02-09T07:46:08.213Z,-1.77
2023-02-09T07:47:39.898Z,-1.62
2023-02-09T07:49:11.486Z,-1.45
2023-02-09T07:50:48.559Z,-1.38
2023-02-09T07:52:20.008Z,-1.40
2023-02-09T07:53:57.949Z,-1.35
2023-02-09T07:55:29.708Z,-1.37
2023-02-09T07:57:01.180Z,-1.28
2023-02-09T07:58:32.804Z,-1.26
2023-02-09T08:00:04.501Z,-1.29
2023-02-09T08:01:35.979Z,-1.26
2023-02-09T08:03:07.757Z,-1.28
2023-02-09T08:04:39.363Z,-1.28
2023-02-09T08:06:19.558Z,-1.20
2023-02-09T08:07:51.740Z,-1.12
2023-02-09T08:09:23.304Z,-1.07
2023-02-09T08:10:54.978Z,-1.05
2023-02-09T08:12:46.717Z,-1.02
2023-02-09T08:14:22.450Z,-1.05
2023-02-09T08:15:55.750Z,-1.15
2023-02-09T08:17:28.149Z,-1.22
2023-02-09T08:19:06.595Z,-1.22
2023-02-09T08:20:38.207Z,-1.21
2023-02-09T08:22:09.894Z,-1.22
2023-02-09T08:23:41.937Z,-1.17
2023-02-09T08:25:14.306Z,-1.13
2023-02-09T08:26:46.299Z,-1.06
2023-02-09T08:28:21.729Z,-0.98
2023-02-09T08:29:53.320Z,-0.86
2023-02-09T08:31:24.903Z,-0.89
2023-02-09T08:32:56.552Z,-0.77
2023-02-09T08:34:28.181Z,-0.68
2023-02-09T08:35:59.846Z,-0.60
2023-02-09T08:37:31.547Z,-0.50
2023-02-09T08:39:05.588Z,-0.39
2023-02-09T08:40:40.326Z,-0.18
2023-02-09T08:42:11.891Z,0.03
2023-02-09T08:43:47.336Z,0.21
2023-02-09T08:45:18.970Z,0.32
2023-02-09T08:46:51.283Z,0.42
2023-02-09T08:48:22.899Z,0.52
2023-02-09T08:49:54.476Z,0.59
2023-02-09T08:51:26.124Z,0.65
2023-02-09T08:52:58.266Z,0.69
2023-02-09T08:54:29.963Z,0.76
2023-02-09T08:56:01.644Z,0.89
2023-02-09T08:57:43.476Z,0.96
2023-02-09T08:59:16.996Z,1.07
2023-02-09T09:00:50.045Z,1.20
2023-02-09T09:02:21.712Z,1.17
2023-02-09T09:03:53.500Z,1.18
2023-02-09T09:05:25.006Z,1.22
2023-02-09T09:06:56.696Z,1.17
2023-02-09T09:08:28.307Z,1.13
2023-02-09T09:10:00.005Z,1.11
2023-02-09T09:11:31.731Z,1.11
2023-02-09T09:13:03.792Z,1.06
2023-02-09T09:14:35.753Z,1.01
2023-02-09T09:16:07.598Z,0.94
2023-02-09T09:17:39.515Z,0.93
2023-02-09T09:19:11.066Z,1.02
2023-02-09T09:20:42.747Z,1.15
2023-02-09T09:22:14.315Z,1.27
2023-02-09T09:23:46.090Z,1.38
2023-02-09T09:25:20.398Z,1.47
2023-02-09T09:26:51.936Z,1.55
2023-02-09T09:28:23.474Z,1.63
2023-02-09T09:29:55.573Z,1.76
2023-02-09T09:31:27.325Z,1.90
2023-02-09T09:32:59.418Z,1.98
2023-02-09T09:34:31.170Z,2.02
2023-02-09T09:36:03.188Z,2.08
2023-02-09T09:37:35.067Z,2.22
2023-02-09T09:39:07.098Z,2.35
2023-02-09T09:40:40.600Z,2.45
2023-02-09T09:42:26.082Z,2.44
2023-02-09T09:43:58.248Z,2.48
2023-02-09T09:45:30.400Z,2.43
2023-02-09T09:47:07.586Z,2.33
2023-02-09T09:48:42.985Z,2.36
2023-02-09T09:50:15.239Z,2.43
2023-02-09T09:51:48.276Z,2.41
2023-02-09T09:53:35.593Z,2.49
2023-02-09T09:55:08.112Z,2.54
2023-02-09T09:56:41.181Z,2.65
2023-02-09T09:58:16.047Z,2.77
2023-02-09T09:59:47.800Z,2.78
2023-02-09T10:01:20.260Z,2.75
2023-02-09T10:02:52.209Z,2.79
2023-02-09T10:04:23.957Z,2.74
2023-02-09T10:05:56.847Z,2.74
2023-02-09T10:07:31.823Z,2.79
2023-02-09T10:09:04.696Z,2.81
2023-02-09T10:10:55.368Z,2.87
2023-02-09T10:12:37.807Z,2.92
2023-02-09T10:14:10.148Z,2.86
2023-02-09T10:15:42.164Z,2.77
2023-02-09T10:17:13.744Z,2.76
2023-02-09T10:18:46.149Z,2.76
2023-02-09T10:20:18.118Z,2.71
2023-02-09T10:21:50.173Z,2.81
2023-02-09T10:23:25.989Z,2.90
2023-02-09T10:24:57.695Z,2.98
2023-02-09T10:26:31.358Z,3.12
2023-02-09T10:28:06.599Z,3.21
2023-02-09T10:29:38.390Z,3.41
2023-02-09T10:31:19.465Z,3.54
2023-02-09T10:32:51.267Z,3.74
2023-02-09T10:34:31.335Z,3.89
2023-02-09T10:36:06.244Z,4.01
2023-02-09T10:37:38.613Z,4.10
2023-02-09T10:39:10.330Z,4.22
2023-02-09T10:40:42.126Z,4.35
2023-02-09T10:42:20.438Z,4.39
2023-02-09T10:43:52.574Z,4.33
2023-02-09T10:45:46.359Z,4.33
2023-02-09T10:47:20.895Z,4.39
2023-02-09T10:48:52.414Z,4.43
2023-02-09T10:50:24.087Z,4.50
2023-02-09T10:52:15.173Z,4.52
2023-02-09T10:53:55.834Z,4.64
2023-02-09T10:55:29.048Z,4.63
2023-02-09T10:57:02.129Z,4.73
2023-02-09T10:58:34.696Z,4.84
2023-02-09T11:00:16.010Z,4.79
2023-02-09T11:01:57.669Z,4.81
2023-02-09T11:03:30.407Z,4.87
2023-02-09T11:05:02.186Z,4.96
2023-02-09T11:06:43.739Z,5.08
2023-02-09T11:08:21.932Z,5.27
2023-02-09T11:09:54.977Z,5.48
2023-02-09T11:11:36.234Z,5.66
2023-02-09T11:13:14.948Z,5.82
2023-02-09T11:14:47.044Z,5.84
2023-02-09T11:16:38.525Z,5.89
2023-02-09T11:18:11.916Z,5.79
2023-02-09T11:19:46.854Z,5.82
2023-02-09T11:21:29.274Z,5.94
2023-02-09T11:23:19.843Z,6.12
2023-02-09T11:25:19.201Z,6.26
2023-02-09T11:26:55.589Z,6.27
2023-02-09T11:28:46.561Z,6.26
2023-02-09T11:30:18.788Z,6.33
2023-02-09T11:32:02.806Z,6.39
2023-02-09T11:33:40.813Z,6.41
2023-02-09T11:35:14.411Z,6.60
2023-02-09T11:36:51.568Z,6.79
2023-02-09T11:38:29.597Z,6.88
2023-02-09T11:40:13.874Z,6.87
2023-02-09T11:42:24.353Z,6.86
2023-02-09T11:43:56.601Z,6.96
2023-02-09T11:45:30.750Z,7.03
2023-02-09T11:47:06.880Z,7.09
2023-02-09T11:48:43.002Z,7.11
2023-02-09T11:50:40.494Z,7.17
2023-02-09T11:52:13.830Z,7.21
2023-02-09T11:53:47.781Z,7.22
2023-02-09T11:55:25.494Z,7.18
2023-02-09T11:56:59.694Z,7.22
2023-02-09T11:58:31.220Z,7.27
2023-02-09T12:00:05.202Z,7.27
2023-02-09T12:01:55.500Z,7.18
2023-02-09T12:03:27.117Z,7.23
2023-02-09T12:05:01.809Z,7.37
2023-02-09T12:06:44.432Z,7.44
2023-02-09T12:08:45.313Z,7.38
2023-02-09T12:10:35.745Z,7.27
2023-02-09T12:12:22.377Z,7.30
2023-02-09T12:13:54.044Z,7.28
2023-02-09T12:15:37.678Z,7.09
2023-02-09T12:17:19.337Z,7.02
2023-02-09T12:18:51.088Z,7.05
2023-02-09T12:20:25.628Z,7.03
2023-02-09T12:21:57.133Z,6.78
2023-02-09T12:23:31.882Z,6.72
2023-02-09T12:25:12.945Z,6.89
2023-02-09T12:26:55.154Z,7.03
2023-02-09T12:28:30.150Z,7.11
2023-02-09T12:30:01.867Z,7.19
2023-02-09T12:31:53.388Z,7.22
2023-02-09T12:33:25.107Z,7.30
2023-02-09T12:35:00.054Z,7.37
2023-02-09T12:36:35.557Z,7.46
2023-02-09T12:38:13.242Z,7.53
2023-02-09T12:40:03.763Z,7.42
2023-02-09T12:41:38.491Z,7.24
2023-02-09T12:43:13.282Z,7.29
2023-02-09T12:44:57.114Z,7.43
2023-02-09T12:46:28.771Z,7.67
2023-02-09T12:48:09.487Z,7.80
2023-02-09T12:49:41.058Z,7.94
2023-02-09T12:51:33.950Z,8.01
2023-02-09T12:53:29.390Z,8.07
2023-02-09T12:55:03.309Z,8.17
2023-02-09T12:56:34.889Z,8.24
2023-02-09T12:58:27.342Z,8.32
2023-02-09T12:59:59.857Z,8.38
2023-02-09T13:01:50.123Z,8.42
2023-02-09T13:03:21.768Z,8.41
2023-02-09T13:05:04.366Z,8.35
2023-02-09T13:06:37.200Z,8.39
2023-02-09T13:08:08.750Z,8.47
2023-02-09T13:09:40.289Z,8.47
2023-02-09T13:11:23.405Z,8.42
2023-02-09T13:13:09.323Z,8.38
2023-02-09T13:14:42.646Z,8.41
2023-02-09T13:16:23.352Z,8.35
2023-02-09T13:18:04.931Z,8.38
2023-02-09T13:20:02.328Z,8.48
2023-02-09T13:21:47.807Z,8.59
2023-02-09T13:23:32.969Z,8.63
2023-02-09T13:25:15.567Z,8.72
2023-02-09T13:26:54.039Z,8.76
2023-02-09T13:28:28.390Z,8.78
2023-02-09T13:30:00.131Z,8.65
2023-02-09T13:31:41.150Z,8.62
2023-02-09T13:33:12.655Z,8.60
2023-02-09T13:34:55.918Z,8.60
2023-02-09T13:36:31.383Z,8.45
2023-02-09T13:38:14.162Z,8.36
2023-02-09T13:39:45.732Z,8.33
2023-02-09T13:41:24.407Z,8.29
2023-02-09T13:43:16.295Z,7.94
2023-02-09T13:44:50.216Z,7.71
2023-02-09T13:46:28.140Z,7.57
2023-02-09T13:48:00.811Z,7.45
2023-02-09T13:49:32.281Z,7.49
2023-02-09T13:55:58.080Z,7.28
2023-02-09T13:57:38.726Z,7.18
2023-02-09T13:59:13.589Z,7.15
2023-02-09T14:00:51.909Z,7.04
2023-02-09T14:02:25.138Z,6.90
2023-02-09T14:04:01.196Z,6.98
2023-02-09T14:05:39.853Z,6.91
2023-02-09T14:07:11.645Z,6.82
2023-02-09T14:08:43.152Z,6.74
2023-02-09T14:10:16.846Z,6.55
2023-02-09T14:11:55.913Z,6.42
2023-02-09T14:13:39.237Z,6.20
2023-02-09T14:15:29.721Z,5.96
2023-02-09T14:17:22.877Z,5.89
2023-02-09T14:18:56.641Z,5.83
2023-02-09T14:20:31.371Z,5.77
2023-02-09T14:22:03.444Z,5.79
2023-02-09T14:23:35.514Z,5.70
2023-02-09T14:25:13.314Z,5.59
2023-02-09T14:27:00.142Z,5.48
2023-02-09T14:28:40.738Z,5.36
2023-02-09T14:30:15.415Z,5.20
2023-02-09T14:31:49.908Z,5.11
2023-02-09T14:33:22.335Z,5.03
2023-02-09T14:34:53.850Z,4.95
2023-02-09T14:36:32.674Z,4.84
2023-02-09T14:38:04.648Z,4.85
2023-02-09T14:39:37.418Z,4.84
2023-02-09T14:41:18.780Z,4.79
2023-02-09T14:43:08.999Z,4.87
2023-02-09T14:44:46.690Z,4.85
2023-02-09T14:46:18.230Z,4.85
2023-02-09T14:47:49.797Z,4.86
2023-02-09T14:49:21.742Z,4.85
2023-02-09T14:50:53.859Z,4.81
2023-02-09T14:52:28.940Z,4.80
2023-02-09T14:54:00.613Z,4.80
2023-02-09T14:55:33.162Z,4.77
2023-02-09T14:57:04.920Z,4.69
2023-02-09T14:58:36.401Z,4.61
2023-02-09T15:00:14.916Z,4.53
2023-02-09T15:01:46.891Z,4.36
2023-02-09T15:03:18.586Z,4.24
2023-02-09T15:04:50.122Z,4.22
2023-02-09T15:06:21.789Z,4.21
2023-02-09T15:07:54.158Z,4.19
2023-02-09T15:09:33.297Z,4.13
2023-02-09T15:11:25.299Z,4.07
2023-02-09T15:12:57.219Z,3.98
2023-02-09T15:14:36.139Z,3.94
2023-02-09T15:16:14.129Z,3.94
2023-02-09T15:17:45.998Z,3.94
2023-02-09T15:19:19.771Z,3.91
2023-02-09T15:20:51.349Z,3.76
2023-02-09T15:22:23.138Z,3.61
2023-02-09T15:23:54.992Z,3.48
2023-02-09T15:25:32.445Z,3.31
2023-02-09T15:27:12.761Z,3.16
2023-02-09T15:28:44.660Z,3.07
2023-02-09T15:30:20.601Z,3.02
2023-02-09T15:31:57.653Z,2.97
2023-02-09T15:33:29.603Z,2.92
2023-02-09T15:35:01.999Z,2.93
2023-02-09T15:36:33.642Z,2.95
2023-02-09T15:38:05.392Z,3.00
2023-02-09T15:39:36.920Z,2.94
2023-02-09T15:41:27.936Z,2.86
2023-02-09T15:43:18.290Z,2.77
2023-02-09T15:45:12.288Z,2.63
2023-02-09T15:47:04.672Z,2.48
2023-02-09T15:48:38.969Z,2.39
2023-02-09T15:50:10.635Z,2.36
2023-02-09T15:51:42.506Z,2.25
2023-02-09T15:53:15.203Z,2.17
2023-02-09T15:54:46.896Z,2.09
2023-02-09T15:56:19.180Z,1.99
2023-02-09T15:57:51.075Z,1.94
2023-02-09T15:59:22.913Z,1.88
2023-02-09T16:00:54.823Z,1.84
2023-02-09T16:02:26.489Z,1.78
2023-02-09T16:04:11.963Z,1.69
2023-02-09T16:05:45.424Z,1.63
2023-02-09T16:07:21.734Z,1.53
2023-02-09T16:08:53.852Z,1.46
2023-02-09T16:10:26.296Z,1.39
2023-02-09T16:11:57.876Z,1.35
2023-02-09T16:13:29.470Z,1.29
2023-02-09T16:15:01.056Z,1.26
2023-02-09T16:16:33.209Z,1.27
2023-02-09T16:18:04.873Z,1.20
2023-02-09T16:19:36.521Z,1.15
2023-02-09T16:21:10.297Z,1.11
2023-02-09T16:22:43.191Z,1.04
2023-02-09T16:24:30.494Z,1.02
2023-02-09T16:26:05.342Z,0.98
2023-02-09T16:27:36.827Z,0.98
2023-02-09T16:29:11.579Z,0.95
2023-02-09T16:30:55.924Z,0.91
2023-02-09T16:32:28.802Z,0.83
2023-02-09T16:34:00.454Z,0.83
2023-02-09T16:35:32.057Z,0.75
2023-02-09T16:37:03.962Z,0.73
2023-02-09T16:38:36.137Z,0.70
2023-02-09T16:40:16.893Z,0.67
2023-02-09T16:41:49.965Z,0.63
2023-02-09T16:43:21.853Z,0.62
2023-02-09T16:44:53.814Z,0.58
2023-02-09T16:46:25.466Z,0.56
2023-02-09T16:47:59.134Z,0.56
2023-02-09T16:49:30.983Z,0.51
2023-02-09T16:51:02.776Z,0.49
2023-02-09T16:52:34.516Z,0.46
2023-02-09T16:54:06.111Z,0.46
2023-02-09T16:55:38.096Z,0.44
2023-02-09T16:57:13.766Z,0.44
2023-02-09T16:58:45.317Z,0.44
2023-02-09T17:00:17.711Z,0.43
2023-02-09T17:01:49.350Z,0.48
2023-02-09T17:03:22.202Z,0.49
2023-02-09T17:04:53.927Z,0.49
2023-02-09T17:06:26.472Z,0.53
2023-02-09T17:08:12.324Z,0.55
2023-02-09T17:09:44.338Z,0.51
2023-02-09T17:11:17.107Z,0.46
2023-02-09T17:12:48.778Z,0.38
2023-02-09T17:14:20.272Z,0.33
2023-02-09T17:15:52.683Z,0.31
2023-02-09T17:17:24.396Z,0.31
2023-02-09T17:18:56.829Z,0.31
2023-02-09T17:20:28.722Z,0.28
2023-02-09T17:22:00.485Z,0.25
2023-02-09T17:23:32.090Z,0.25
2023-02-09T17:25:03.900Z,0.21
2023-02-09T17:26:36.341Z,0.19
2023-02-09T17:28:07.920Z,0.21
2023-02-09T17:29:39.516Z,0.18
2023-02-09T17:31:38.260Z,0.16
2023-02-09T17:33:23.914Z,0.15
2023-02-09T17:34:55.566Z,0.12
2023-02-09T17:36:28.916Z,0.08
2023-02-09T17:38:01.033Z,0.06
2023-02-09T17:39:33.370Z,0.04
2023-02-09T17:41:05.865Z,0.03
2023-02-09T17:42:37.485Z,-0.02
2023-02-09T17:44:22.211Z,-0.11
2023-02-09T17:45:57.836Z,-0.16
2023-02-09T17:47:29.504Z,-0.19
2023-02-09T17:49:01.042Z,-0.23
2023-02-09T17:50:32.777Z,-0.33
2023-02-09T17:52:04.461Z,-0.43
2023-02-09T17:53:36.138Z,-0.48
2023-02-09T17:55:08.194Z,-0.47
2023-02-09T17:56:39.712Z,-0.47
2023-02-09T17:58:11.772Z,-0.49
2023-02-09T17:59:43.628Z,-0.52
2023-02-09T18:01:25.348Z,-0.54
2023-02-09T18:02:58.038Z,-0.56
2023-02-09T18:04:31.747Z,-0.55
2023-02-09T18:06:03.360Z,-0.53
2023-02-09T18:07:34.873Z,-0.51
2023-02-09T18:09:07.371Z,-0.50
2023-02-09T18:10:38.970Z,-0.48
2023-02-09T18:12:13.580Z,-0.52
2023-02-09T18:13:45.168Z,-0.52
2023-02-09T18:15:23.329Z,-0.55
2023-02-09T18:16:55.333Z,-0.55
2023-02-09T18:18:26.959Z,-0.61
2023-02-09T18:19:58.534Z,-0.66
2023-02-09T18:21:30.618Z,-0.68
2023-02-09T18:23:03.016Z,-0.68
2023-02-09T18:24:34.564Z,-0.65
2023-02-09T18:26:06.201Z,-0.64
2023-02-09T18:27:37.754Z,-0.66
2023-02-09T18:29:09.456Z,-0.65
2023-02-09T18:30:41.482Z,-0.65
2023-02-09T18:32:15.109Z,-0.67
2023-02-09T18:33:46.843Z,-0.70
2023-02-09T18:35:48.081Z,-0.69
2023-02-09T18:37:20.388Z,-0.73
2023-02-09T18:38:53.526Z,-0.73
2023-02-09T18:40:25.244Z,-0.73
2023-02-09T18:41:57.334Z,-0.70
2023-02-09T18:43:28.982Z,-0.76
2023-02-09T18:45:00.578Z,-0.81
2023-02-09T18:46:32.242Z,-0.86
2023-02-09T18:48:04.184Z,-0.89
2023-02-09T18:49:35.895Z,-0.89
2023-02-09T18:51:08.094Z,-0.91
2023-02-09T18:52:55.948Z,-0.88
2023-02-09T18:54:29.187Z,-0.89
2023-02-09T18:56:00.763Z,-0.91
2023-02-09T18:57:32.277Z,-0.96
2023-02-09T18:59:03.757Z,-0.94
2023-02-09T19:00:35.846Z,-0.94
2023-02-09T19:02:10.270Z,-0.96
2023-02-09T19:03:41.902Z,-0.92
2023-02-09T19:05:13.751Z,-0.90
2023-02-09T19:06:45.311Z,-0.86
2023-02-09T19:08:16.889Z,-0.86
2023-02-09T19:09:48.767Z,-0.90
2023-02-09T19:11:21.321Z,-0.93
2023-02-09T19:12:54.142Z,-0.94
2023-02-09T19:14:37.919Z,-0.94
2023-02-09T19:16:12.620Z,-0.96
2023-02-09T19:17:44.768Z,-1.03
2023-02-09T19:19:16.800Z,-1.05
2023-02-09T19:20:48.876Z,-1.04
2023-02-09T19:22:20.788Z,-1.02
2023-02-09T19:23:54.173Z,-1.04
2023-02-09T19:25:26.999Z,-1.06
2023-02-09T19:26:58.545Z,-1.08
2023-02-09T19:28:30.144Z,-1.08
2023-02-09T19:30:01.704Z,-1.08
2023-02-09T19:31:33.871Z,-1.08
2023-02-09T19:33:05.444Z,-1.04
2023-02-09T19:34:39.062Z,-1.03
2023-02-09T19:36:10.607Z,-1.00
2023-02-09T19:37:42.273Z,-0.97
2023-02-09T19:39:13.843Z,-0.99
2023-02-09T19:40:45.519Z,-1.05
2023-02-09T19:42:17.140Z,-1.11
2023-02-09T19:43:48.791Z,-1.11
2023-02-09T19:45:20.299Z,-1.13
2023-02-09T19:46:51.980Z,-1.14
2023-02-09T19:48:23.680Z,-1.14
2023-02-09T19:49:55.525Z,-1.15
2023-02-09T19:51:27.266Z,-1.16
2023-02-09T19:52:59.299Z,-1.14
2023-02-09T19:54:31.377Z,-1.12
2023-02-09T19:56:02.932Z,-1.13
2023-02-09T19:57:35.015Z,-1.10
2023-02-09T19:59:06.570Z,-1.08
2023-02-09T20:00:38.118Z,-1.07
2023-02-09T20:02:11.011Z,-1.08
2023-02-09T20:03:42.686Z,-1.06
2023-02-09T20:05:15.007Z,-1.08
2023-02-09T20:06:46.560Z,-1.11
2023-02-09T20:08:18.432Z,-1.11
2023-02-09T20:09:50.576Z,-1.07
2023-02-09T20:11:22.203Z,-1.10
2023-02-09T20:12:54.233Z,-1.10
2023-02-09T20:14:26.794Z,-1.11
2023-02-09T20:16:00.147Z,-1.09
2023-02-09T20:17:31.719Z,-1.10
2023-02-09T20:19:03.997Z,-1.07
2023-02-09T20:20:35.583Z,-1.09
2023-02-09T20:22:07.155Z,-1.07
2023-02-09T20:23:38.655Z,-0.98
2023-02-09T20:25:10.753Z,-0.88
2023-02-09T20:26:42.796Z,-0.87
2023-02-09T20:28:14.287Z,-0.81
2023-02-09T20:29:45.923Z,-0.77
2023-02-09T20:31:24.773Z,-0.72
2023-02-09T20:32:56.400Z,-0.66
2023-02-09T20:34:28.006Z,-0.64
2023-02-09T20:35:59.661Z,-0.64
2023-02-09T20:37:31.654Z,-0.64
2023-02-09T20:39:04.016Z,-0.69
2023-02-09T20:40:35.597Z,-0.68
2023-02-09T20:42:25.585Z,-0.68
2023-02-09T20:44:15.801Z,-0.70
2023-02-09T20:46:05.967Z,-0.73
2023-02-09T20:47:37.581Z,-0.71
2023-02-09T20:49:09.891Z,-0.69